sensor_id;sensor_type;location;lat;lon;timestamp;temperature;humidity
51902;DHT22;37929;53.218;6.548;2023-07-29T00:01:15;19.00;99.90
51902;DHT22;37929;53.218;6.548;2023-07-29T00:03:41;19.00;99.90
51902;DHT22;37929;53.218;6.548;2023-07-29T00:06:07;19.00;99.90
51902;DHT22;37929;53.218;6.548;2023-07-29T00:08:32;19.00;99.90
51902;DHT22;37929;53.218;6.548;2023-07-29T00:10:58;19.00;99.90
51902;DHT22;37929;53.218;6.548;2023-07-29T00:13:24;19.00;99.90
51902;DHT22;37929;53.218;6.548;2023-07-29T00:15:53;19.00;99.90
51902;DHT22;37929;53.218;6.548;2023-07-29T00:18:19;18.90;99.90
51902;DHT22;37929;53.218;6.548;2023-07-29T00:20:44;18.90;99.90
51902;DHT22;37929;53.218;6.548;2023-07-29T00:23:11;18.90;99.90
51902;DHT22;37929;53.218;6.548;2023-07-29T00:25:36;18.90;99.90
51902;DHT22;37929;53.218;6.548;2023-07-29T00:28:02;18.90;99.90
51902;DHT22;37929;53.218;6.548;2023-07-29T00:30:28;18.80;99.90
51902;DHT22;37929;53.218;6.548;2023-07-29T00:32:53;18.80;99.90
51902;DHT22;37929;53.218;6.548;2023-07-29T00:35:19;18.80;99.90
51902;DHT22;37929;53.218;6.548;2023-07-29T00:37:45;18.80;99.90
51902;DHT22;37929;53.218;6.548;2023-07-29T00:40:21;18.80;99.90
51902;DHT22;37929;53.218;6.548;2023-07-29T00:42:47;18.80;99.90
51902;DHT22;37929;53.218;6.548;2023-07-29T00:45:13;18.80;99.90
51902;DHT22;37929;53.218;6.548;2023-07-29T00:47:39;18.80;99.90
51902;DHT22;37929;53.218;6.548;2023-07-29T00:50:06;18.70;99.90
51902;DHT22;37929;53.218;6.548;2023-07-29T00:52:32;18.70;99.90
51902;DHT22;37929;53.218;6.548;2023-07-29T00:54:58;18.70;99.90
51902;DHT22;37929;53.218;6.548;2023-07-29T00:57:25;18.70;99.90
51902;DHT22;37929;53.218;6.548;2023-07-29T00:59:52;18.60;99.90
51902;DHT22;37929;53.218;6.548;2023-07-29T01:02:18;18.70;99.90
51902;DHT22;37929;53.218;6.548;2023-07-29T01:04:43;18.60;99.90
51902;DHT22;37929;53.218;6.548;2023-07-29T01:12:47;18.60;99.90
51902;DHT22;37929;53.218;6.548;2023-07-29T01:15:19;18.60;99.90
51902;DHT22;37929;53.218;6.548;2023-07-29T01:18:05;18.60;99.90
51902;DHT22;37929;53.218;6.548;2023-07-29T01:20:36;18.60;99.90
51902;DHT22;37929;53.218;6.548;2023-07-29T01:23:02;18.50;99.90
51902;DHT22;37929;53.218;6.548;2023-07-29T01:25:28;18.50;99.90
51902;DHT22;37929;53.218;6.548;2023-07-29T01:27:54;18.50;99.90
51902;DHT22;37929;53.218;6.548;2023-07-29T01:30:24;18.50;99.90
51902;DHT22;37929;53.218;6.548;2023-07-29T01:32:56;18.50;99.90
51902;DHT22;37929;53.218;6.548;2023-07-29T01:35:25;18.50;99.90
51902;DHT22;37929;53.218;6.548;2023-07-29T01:38:06;18.50;99.90
51902;DHT22;37929;53.218;6.548;2023-07-29T01:40:35;18.50;99.90
51902;DHT22;37929;53.218;6.548;2023-07-29T01:43:01;18.40;99.90
51902;DHT22;37929;53.218;6.548;2023-07-29T01:45:29;18.40;99.90
51902;DHT22;37929;53.218;6.548;2023-07-29T01:47:57;18.40;99.90
51902;DHT22;37929;53.218;6.548;2023-07-29T01:50:23;18.30;99.90
51902;DHT22;37929;53.218;6.548;2023-07-29T01:52:49;18.30;99.90
51902;DHT22;37929;53.218;6.548;2023-07-29T01:55:14;18.30;99.90
51902;DHT22;37929;53.218;6.548;2023-07-29T01:57:40;18.20;99.90
51902;DHT22;37929;53.218;6.548;2023-07-29T02:00:06;18.20;99.90
51902;DHT22;37929;53.218;6.548;2023-07-29T02:02:33;18.20;99.90
51902;DHT22;37929;53.218;6.548;2023-07-29T02:04:58;18.20;99.90
51902;DHT22;37929;53.218;6.548;2023-07-29T02:07:24;18.10;99.90
51902;DHT22;37929;53.218;6.548;2023-07-29T02:09:51;18.10;99.90
51902;DHT22;37929;53.218;6.548;2023-07-29T02:12:17;18.10;99.90
51902;DHT22;37929;53.218;6.548;2023-07-29T02:14:43;18.00;99.90
51902;DHT22;37929;53.218;6.548;2023-07-29T02:17:09;18.00;99.90
51902;DHT22;37929;53.218;6.548;2023-07-29T02:19:34;18.00;99.90
51902;DHT22;37929;53.218;6.548;2023-07-29T02:22:00;18.00;99.90
51902;DHT22;37929;53.218;6.548;2023-07-29T02:24:26;17.90;99.90
51902;DHT22;37929;53.218;6.548;2023-07-29T02:26:52;17.90;99.90
51902;DHT22;37929;53.218;6.548;2023-07-29T02:29:17;17.90;99.90
51902;DHT22;37929;53.218;6.548;2023-07-29T02:31:43;17.90;99.90
51902;DHT22;37929;53.218;6.548;2023-07-29T02:34:09;17.80;99.90
51902;DHT22;37929;53.218;6.548;2023-07-29T02:36:35;17.80;99.90
51902;DHT22;37929;53.218;6.548;2023-07-29T02:39:01;17.70;99.90
51902;DHT22;37929;53.218;6.548;2023-07-29T02:41:26;17.70;99.90
51902;DHT22;37929;53.218;6.548;2023-07-29T02:43:52;17.70;99.90
51902;DHT22;37929;53.218;6.548;2023-07-29T02:46:18;17.70;99.90
51902;DHT22;37929;53.218;6.548;2023-07-29T02:48:44;17.60;99.90
51902;DHT22;37929;53.218;6.548;2023-07-29T02:51:10;17.60;99.90
51902;DHT22;37929;53.218;6.548;2023-07-29T02:53:36;17.50;99.90
51902;DHT22;37929;53.218;6.548;2023-07-29T02:56:03;17.50;99.90
51902;DHT22;37929;53.218;6.548;2023-07-29T02:58:29;17.60;99.90
51902;DHT22;37929;53.218;6.548;2023-07-29T03:01:01;17.50;99.90
51902;DHT22;37929;53.218;6.548;2023-07-29T03:03:27;17.50;99.90
51902;DHT22;37929;53.218;6.548;2023-07-29T03:06:01;17.50;99.90
51902;DHT22;37929;53.218;6.548;2023-07-29T03:08:27;17.40;99.90
51902;DHT22;37929;53.218;6.548;2023-07-29T03:10:54;17.40;99.90
51902;DHT22;37929;53.218;6.548;2023-07-29T03:13:20;17.40;99.90
51902;DHT22;37929;53.218;6.548;2023-07-29T03:15:45;17.40;99.90
51902;DHT22;37929;53.218;6.548;2023-07-29T03:18:11;17.40;99.90
51902;DHT22;37929;53.218;6.548;2023-07-29T03:20:37;17.30;99.90
51902;DHT22;37929;53.218;6.548;2023-07-29T03:23:03;17.30;99.90
51902;DHT22;37929;53.218;6.548;2023-07-29T03:25:28;17.30;99.90
51902;DHT22;37929;53.218;6.548;2023-07-29T03:27:55;17.30;99.90
51902;DHT22;37929;53.218;6.548;2023-07-29T03:30:22;17.20;99.90
51902;DHT22;37929;53.218;6.548;2023-07-29T03:32:48;17.20;99.90
51902;DHT22;37929;53.218;6.548;2023-07-29T03:35:14;17.20;99.90
51902;DHT22;37929;53.218;6.548;2023-07-29T03:37:40;17.20;99.90
51902;DHT22;37929;53.218;6.548;2023-07-29T03:40:07;17.20;99.90
51902;DHT22;37929;53.218;6.548;2023-07-29T03:42:33;17.20;99.90
51902;DHT22;37929;53.218;6.548;2023-07-29T03:44:58;17.20;99.90
51902;DHT22;37929;53.218;6.548;2023-07-29T03:47:24;17.10;99.90
51902;DHT22;37929;53.218;6.548;2023-07-29T03:49:50;17.20;99.90
51902;DHT22;37929;53.218;6.548;2023-07-29T03:52:16;17.20;99.90
51902;DHT22;37929;53.218;6.548;2023-07-29T03:54:42;17.10;99.90
51902;DHT22;37929;53.218;6.548;2023-07-29T03:57:07;17.10;99.90
51902;DHT22;37929;53.218;6.548;2023-07-29T03:59:33;17.10;99.90
51902;DHT22;37929;53.218;6.548;2023-07-29T04:01:59;17.10;99.90
51902;DHT22;37929;53.218;6.548;2023-07-29T04:04:25;17.10;99.90
51902;DHT22;37929;53.218;6.548;2023-07-29T04:06:50;17.10;99.90
51902;DHT22;37929;53.218;6.548;2023-07-29T04:09:16;17.00;99.90
51902;DHT22;37929;53.218;6.548;2023-07-29T04:11:42;17.10;99.90
51902;DHT22;37929;53.218;6.548;2023-07-29T04:14:08;17.00;99.90
51902;DHT22;37929;53.218;6.548;2023-07-29T04:16:33;17.10;99.90
51902;DHT22;37929;53.218;6.548;2023-07-29T04:18:59;17.10;99.90
51902;DHT22;37929;53.218;6.548;2023-07-29T04:21:25;17.10;99.90
51902;DHT22;37929;53.218;6.548;2023-07-29T04:23:51;17.00;99.90
51902;DHT22;37929;53.218;6.548;2023-07-29T04:26:17;17.00;99.90
51902;DHT22;37929;53.218;6.548;2023-07-29T04:28:42;17.00;99.90
51902;DHT22;37929;53.218;6.548;2023-07-29T04:31:08;17.00;99.90
51902;DHT22;37929;53.218;6.548;2023-07-29T04:33:34;17.00;99.90
51902;DHT22;37929;53.218;6.548;2023-07-29T04:36:00;17.00;99.90
51902;DHT22;37929;53.218;6.548;2023-07-29T04:38:31;17.00;99.90
51902;DHT22;37929;53.218;6.548;2023-07-29T04:41:00;17.00;99.90
51902;DHT22;37929;53.218;6.548;2023-07-29T04:43:32;17.00;99.90
51902;DHT22;37929;53.218;6.548;2023-07-29T04:45:58;17.10;99.90
51902;DHT22;37929;53.218;6.548;2023-07-29T04:48:24;17.00;99.90
51902;DHT22;37929;53.218;6.548;2023-07-29T04:50:50;17.00;99.90
51902;DHT22;37929;53.218;6.548;2023-07-29T04:53:15;17.10;99.90
51902;DHT22;37929;53.218;6.548;2023-07-29T04:55:42;17.10;99.90
51902;DHT22;37929;53.218;6.548;2023-07-29T04:58:09;17.10;99.90
51902;DHT22;37929;53.218;6.548;2023-07-29T05:00:35;17.10;99.90
51902;DHT22;37929;53.218;6.548;2023-07-29T05:03:00;17.10;99.90
51902;DHT22;37929;53.218;6.548;2023-07-29T05:05:27;17.10;99.90
51902;DHT22;37929;53.218;6.548;2023-07-29T05:07:53;17.10;99.90
51902;DHT22;37929;53.218;6.548;2023-07-29T05:10:18;17.20;99.90
51902;DHT22;37929;53.218;6.548;2023-07-29T05:12:44;17.20;99.90
51902;DHT22;37929;53.218;6.548;2023-07-29T05:15:10;17.10;99.90
51902;DHT22;37929;53.218;6.548;2023-07-29T05:17:37;17.20;99.90
51902;DHT22;37929;53.218;6.548;2023-07-29T05:20:03;17.20;99.90
51902;DHT22;37929;53.218;6.548;2023-07-29T05:22:29;17.20;99.90
51902;DHT22;37929;53.218;6.548;2023-07-29T05:24:56;17.20;99.90
51902;DHT22;37929;53.218;6.548;2023-07-29T05:27:21;17.20;99.90
51902;DHT22;37929;53.218;6.548;2023-07-29T05:29:47;17.30;99.90
51902;DHT22;37929;53.218;6.548;2023-07-29T05:32:13;17.30;99.90
51902;DHT22;37929;53.218;6.548;2023-07-29T05:34:38;17.30;99.90
51902;DHT22;37929;53.218;6.548;2023-07-29T05:37:04;17.30;99.90
51902;DHT22;37929;53.218;6.548;2023-07-29T05:39:30;17.40;99.90
51902;DHT22;37929;53.218;6.548;2023-07-29T05:41:57;17.40;99.90
51902;DHT22;37929;53.218;6.548;2023-07-29T05:44:23;17.40;99.90
51902;DHT22;37929;53.218;6.548;2023-07-29T05:46:49;17.40;99.90
51902;DHT22;37929;53.218;6.548;2023-07-29T05:49:14;17.40;99.90
51902;DHT22;37929;53.218;6.548;2023-07-29T05:51:40;17.40;99.90
51902;DHT22;37929;53.218;6.548;2023-07-29T05:54:06;17.40;99.90
51902;DHT22;37929;53.218;6.548;2023-07-29T05:56:32;17.40;99.90
51902;DHT22;37929;53.218;6.548;2023-07-29T05:58:58;17.40;99.90
51902;DHT22;37929;53.218;6.548;2023-07-29T06:01:23;17.40;99.90
51902;DHT22;37929;53.218;6.548;2023-07-29T06:03:49;17.40;99.90
51902;DHT22;37929;53.218;6.548;2023-07-29T06:06:15;17.40;99.90
51902;DHT22;37929;53.218;6.548;2023-07-29T06:08:41;17.40;99.90
51902;DHT22;37929;53.218;6.548;2023-07-29T06:11:07;17.40;99.90
51902;DHT22;37929;53.218;6.548;2023-07-29T06:13:33;17.40;99.90
51902;DHT22;37929;53.218;6.548;2023-07-29T06:15:58;17.40;99.90
51902;DHT22;37929;53.218;6.548;2023-07-29T06:18:25;17.40;99.90
51902;DHT22;37929;53.218;6.548;2023-07-29T06:20:51;17.50;99.90
51902;DHT22;37929;53.218;6.548;2023-07-29T06:23:17;17.50;99.90
51902;DHT22;37929;53.218;6.548;2023-07-29T06:25:42;17.50;99.90
51902;DHT22;37929;53.218;6.548;2023-07-29T06:28:11;17.50;99.90
51902;DHT22;37929;53.218;6.548;2023-07-29T06:30:37;17.50;99.90
51902;DHT22;37929;53.218;6.548;2023-07-29T06:33:03;17.50;99.90
51902;DHT22;37929;53.218;6.548;2023-07-29T06:35:29;17.50;99.90
51902;DHT22;37929;53.218;6.548;2023-07-29T06:37:55;17.60;99.90
51902;DHT22;37929;53.218;6.548;2023-07-29T06:40:21;17.70;99.90
51902;DHT22;37929;53.218;6.548;2023-07-29T06:42:46;17.70;99.90
51902;DHT22;37929;53.218;6.548;2023-07-29T06:45:12;17.80;99.90
51902;DHT22;37929;53.218;6.548;2023-07-29T06:47:38;17.80;99.90
51902;DHT22;37929;53.218;6.548;2023-07-29T06:50:04;17.90;99.90
51902;DHT22;37929;53.218;6.548;2023-07-29T06:52:30;17.90;99.90
51902;DHT22;37929;53.218;6.548;2023-07-29T06:54:56;18.00;99.90
51902;DHT22;37929;53.218;6.548;2023-07-29T06:57:22;18.00;99.90
51902;DHT22;37929;53.218;6.548;2023-07-29T06:59:48;18.10;99.90
51902;DHT22;37929;53.218;6.548;2023-07-29T07:02:14;18.10;99.90
51902;DHT22;37929;53.218;6.548;2023-07-29T07:04:39;18.20;99.90
51902;DHT22;37929;53.218;6.548;2023-07-29T07:07:05;18.10;99.90
51902;DHT22;37929;53.218;6.548;2023-07-29T07:09:31;18.20;99.90
51902;DHT22;37929;53.218;6.548;2023-07-29T07:11:57;18.20;99.90
51902;DHT22;37929;53.218;6.548;2023-07-29T07:14:23;18.30;99.90
51902;DHT22;37929;53.218;6.548;2023-07-29T07:16:48;18.30;99.90
51902;DHT22;37929;53.218;6.548;2023-07-29T07:19:14;18.30;99.90
51902;DHT22;37929;53.218;6.548;2023-07-29T07:21:40;18.30;99.90
51902;DHT22;37929;53.218;6.548;2023-07-29T07:24:06;18.40;99.90
51902;DHT22;37929;53.218;6.548;2023-07-29T07:26:32;18.40;99.90
51902;DHT22;37929;53.218;6.548;2023-07-29T07:28:58;18.40;99.90
51902;DHT22;37929;53.218;6.548;2023-07-29T07:31:25;18.50;99.90
51902;DHT22;37929;53.218;6.548;2023-07-29T07:33:50;18.50;99.90
51902;DHT22;37929;53.218;6.548;2023-07-29T07:36:16;18.50;99.90
51902;DHT22;37929;53.218;6.548;2023-07-29T07:38:42;18.50;99.90
51902;DHT22;37929;53.218;6.548;2023-07-29T07:41:08;18.50;99.90
51902;DHT22;37929;53.218;6.548;2023-07-29T07:43:33;18.60;99.90
51902;DHT22;37929;53.218;6.548;2023-07-29T07:46:03;18.60;99.90
51902;DHT22;37929;53.218;6.548;2023-07-29T07:48:31;18.60;99.90
51902;DHT22;37929;53.218;6.548;2023-07-29T07:50:58;18.70;99.90
51902;DHT22;37929;53.218;6.548;2023-07-29T07:53:25;18.70;99.90
51902;DHT22;37929;53.218;6.548;2023-07-29T07:55:53;18.80;99.90
51902;DHT22;37929;53.218;6.548;2023-07-29T07:58:19;18.80;99.90
51902;DHT22;37929;53.218;6.548;2023-07-29T08:00:45;18.90;99.90
51902;DHT22;37929;53.218;6.548;2023-07-29T08:03:10;18.90;99.90
51902;DHT22;37929;53.218;6.548;2023-07-29T08:05:36;19.00;99.90
51902;DHT22;37929;53.218;6.548;2023-07-29T08:08:02;19.00;99.90
51902;DHT22;37929;53.218;6.548;2023-07-29T08:10:28;19.10;99.90
51902;DHT22;37929;53.218;6.548;2023-07-29T08:12:53;19.10;99.90
51902;DHT22;37929;53.218;6.548;2023-07-29T08:15:28;19.20;99.90
51902;DHT22;37929;53.218;6.548;2023-07-29T08:17:54;19.30;99.90
51902;DHT22;37929;53.218;6.548;2023-07-29T08:20:20;19.30;99.90
51902;DHT22;37929;53.218;6.548;2023-07-29T08:22:46;19.40;99.90
51902;DHT22;37929;53.218;6.548;2023-07-29T08:25:12;19.40;99.90
51902;DHT22;37929;53.218;6.548;2023-07-29T08:27:38;19.40;99.90
51902;DHT22;37929;53.218;6.548;2023-07-29T08:30:04;19.50;99.90
51902;DHT22;37929;53.218;6.548;2023-07-29T08:32:30;19.60;99.90
51902;DHT22;37929;53.218;6.548;2023-07-29T08:35:05;19.70;99.90
51902;DHT22;37929;53.218;6.548;2023-07-29T08:37:31;19.80;99.90
51902;DHT22;37929;53.218;6.548;2023-07-29T08:39:57;19.80;99.90
51902;DHT22;37929;53.218;6.548;2023-07-29T08:42:23;19.70;99.90
51902;DHT22;37929;53.218;6.548;2023-07-29T08:44:54;19.80;99.90
51902;DHT22;37929;53.218;6.548;2023-07-29T08:47:20;19.80;99.90
51902;DHT22;37929;53.218;6.548;2023-07-29T08:49:47;19.80;99.90
51902;DHT22;37929;53.218;6.548;2023-07-29T08:52:17;19.80;99.90
51902;DHT22;37929;53.218;6.548;2023-07-29T08:54:43;19.80;99.90
51902;DHT22;37929;53.218;6.548;2023-07-29T08:57:10;19.70;99.90
51902;DHT22;37929;53.218;6.548;2023-07-29T08:59:39;19.70;99.90
51902;DHT22;37929;53.218;6.548;2023-07-29T09:02:05;20.10;99.90
51902;DHT22;37929;53.218;6.548;2023-07-29T09:04:32;20.00;99.90
51902;DHT22;37929;53.218;6.548;2023-07-29T09:06:58;20.20;99.90
51902;DHT22;37929;53.218;6.548;2023-07-29T09:09:25;20.40;99.90
51902;DHT22;37929;53.218;6.548;2023-07-29T09:11:51;20.40;99.90
51902;DHT22;37929;53.218;6.548;2023-07-29T09:14:17;20.40;99.90
51902;DHT22;37929;53.218;6.548;2023-07-29T09:16:43;20.40;99.90
51902;DHT22;37929;53.218;6.548;2023-07-29T09:19:09;20.40;99.90
51902;DHT22;37929;53.218;6.548;2023-07-29T09:21:39;20.30;99.90
51902;DHT22;37929;53.218;6.548;2023-07-29T09:24:05;20.30;99.90
51902;DHT22;37929;53.218;6.548;2023-07-29T09:26:34;20.30;99.90
51902;DHT22;37929;53.218;6.548;2023-07-29T09:29:00;20.40;99.90
51902;DHT22;37929;53.218;6.548;2023-07-29T09:31:27;20.40;99.90
51902;DHT22;37929;53.218;6.548;2023-07-29T09:34:01;20.50;99.90
51902;DHT22;37929;53.218;6.548;2023-07-29T09:36:29;20.60;99.90
51902;DHT22;37929;53.218;6.548;2023-07-29T09:38:59;20.80;99.90
51902;DHT22;37929;53.218;6.548;2023-07-29T09:41:26;20.80;99.90
51902;DHT22;37929;53.218;6.548;2023-07-29T09:43:57;20.70;99.90
51902;DHT22;37929;53.218;6.548;2023-07-29T09:46:24;20.70;99.90
51902;DHT22;37929;53.218;6.548;2023-07-29T09:48:53;20.70;99.90
51902;DHT22;37929;53.218;6.548;2023-07-29T09:51:22;20.80;99.90
51902;DHT22;37929;53.218;6.548;2023-07-29T09:53:51;20.80;99.90
51902;DHT22;37929;53.218;6.548;2023-07-29T09:56:24;20.90;99.90
51902;DHT22;37929;53.218;6.548;2023-07-29T09:58:51;20.90;99.90
51902;DHT22;37929;53.218;6.548;2023-07-29T10:01:18;20.90;99.90
51902;DHT22;37929;53.218;6.548;2023-07-29T10:03:44;20.90;99.90
51902;DHT22;37929;53.218;6.548;2023-07-29T10:06:11;21.00;99.90
51902;DHT22;37929;53.218;6.548;2023-07-29T10:08:39;21.00;99.90
51902;DHT22;37929;53.218;6.548;2023-07-29T10:11:07;21.10;99.90
51902;DHT22;37929;53.218;6.548;2023-07-29T10:13:34;21.20;99.90
51902;DHT22;37929;53.218;6.548;2023-07-29T10:16:06;21.30;99.90
51902;DHT22;37929;53.218;6.548;2023-07-29T10:18:33;21.40;99.90
51902;DHT22;37929;53.218;6.548;2023-07-29T10:21:00;21.50;99.90
51902;DHT22;37929;53.218;6.548;2023-07-29T10:23:27;21.40;99.90
51902;DHT22;37929;53.218;6.548;2023-07-29T10:26:04;21.30;99.90
51902;DHT22;37929;53.218;6.548;2023-07-29T10:28:31;21.60;99.90
51902;DHT22;37929;53.218;6.548;2023-07-29T10:30:58;21.30;99.90
51902;DHT22;37929;53.218;6.548;2023-07-29T10:33:26;21.30;99.90
51902;DHT22;37929;53.218;6.548;2023-07-29T10:35:53;21.30;99.90
51902;DHT22;37929;53.218;6.548;2023-07-29T10:38:22;21.30;99.90
51902;DHT22;37929;53.218;6.548;2023-07-29T10:40:55;21.40;99.90
51902;DHT22;37929;53.218;6.548;2023-07-29T10:43:38;21.40;99.90
51902;DHT22;37929;53.218;6.548;2023-07-29T10:46:21;21.40;99.90
51902;DHT22;37929;53.218;6.548;2023-07-29T10:51:35;21.40;99.90
51902;DHT22;37929;53.218;6.548;2023-07-29T10:54:03;21.40;99.90
51902;DHT22;37929;53.218;6.548;2023-07-29T10:56:34;21.40;99.90
51902;DHT22;37929;53.218;6.548;2023-07-29T11:01:40;21.30;99.90
51902;DHT22;37929;53.218;6.548;2023-07-29T11:12:36;21.20;99.90
51902;DHT22;37929;53.218;6.548;2023-07-29T11:15:26;21.20;99.90
51902;DHT22;37929;53.218;6.548;2023-07-29T11:18:00;21.10;99.90
51902;DHT22;37929;53.218;6.548;2023-07-29T11:20:31;20.80;99.90
51902;DHT22;37929;53.218;6.548;2023-07-29T11:22:59;20.60;99.90
51902;DHT22;37929;53.218;6.548;2023-07-29T11:25:27;20.30;99.90
51902;DHT22;37929;53.218;6.548;2023-07-29T11:27:54;20.10;99.90
51902;DHT22;37929;53.218;6.548;2023-07-29T11:30:26;20.00;99.90
51902;DHT22;37929;53.218;6.548;2023-07-29T11:32:57;20.00;99.90
51902;DHT22;37929;53.218;6.548;2023-07-29T11:35:23;20.00;99.90
51902;DHT22;37929;53.218;6.548;2023-07-29T11:37:51;20.00;99.90
51902;DHT22;37929;53.218;6.548;2023-07-29T11:40:18;20.10;99.90
51902;DHT22;37929;53.218;6.548;2023-07-29T11:42:51;20.20;99.90
51902;DHT22;37929;53.218;6.548;2023-07-29T11:45:18;20.30;99.90
51902;DHT22;37929;53.218;6.548;2023-07-29T11:47:44;20.50;99.90
51902;DHT22;37929;53.218;6.548;2023-07-29T11:50:11;20.70;99.90
51902;DHT22;37929;53.218;6.548;2023-07-29T11:52:42;20.70;99.90
51902;DHT22;37929;53.218;6.548;2023-07-29T11:55:09;20.70;99.90
51902;DHT22;37929;53.218;6.548;2023-07-29T11:57:38;20.70;99.90
51902;DHT22;37929;53.218;6.548;2023-07-29T12:00:06;20.70;99.90
51902;DHT22;37929;53.218;6.548;2023-07-29T12:02:33;20.60;99.90
51902;DHT22;37929;53.218;6.548;2023-07-29T12:05:01;20.50;99.90
51902;DHT22;37929;53.218;6.548;2023-07-29T12:07:28;20.50;99.90
51902;DHT22;37929;53.218;6.548;2023-07-29T12:09:54;20.60;99.90
51902;DHT22;37929;53.218;6.548;2023-07-29T12:12:22;20.60;99.90
51902;DHT22;37929;53.218;6.548;2023-07-29T12:14:49;20.60;99.90
51902;DHT22;37929;53.218;6.548;2023-07-29T12:17:15;20.70;99.90
51902;DHT22;37929;53.218;6.548;2023-07-29T12:19:42;20.70;99.90
51902;DHT22;37929;53.218;6.548;2023-07-29T12:22:09;20.70;99.90
51902;DHT22;37929;53.218;6.548;2023-07-29T12:24:38;20.80;99.90
51902;DHT22;37929;53.218;6.548;2023-07-29T12:27:04;21.00;99.90
51902;DHT22;37929;53.218;6.548;2023-07-29T12:29:30;21.00;99.90
51902;DHT22;37929;53.218;6.548;2023-07-29T12:32:03;21.00;99.90
51902;DHT22;37929;53.218;6.548;2023-07-29T12:34:30;20.90;99.90
51902;DHT22;37929;53.218;6.548;2023-07-29T12:36:58;20.80;99.90
51902;DHT22;37929;53.218;6.548;2023-07-29T12:39:25;20.80;99.90
51902;DHT22;37929;53.218;6.548;2023-07-29T12:41:53;20.80;99.90
51902;DHT22;37929;53.218;6.548;2023-07-29T12:44:30;20.80;99.90
51902;DHT22;37929;53.218;6.548;2023-07-29T12:46:56;20.70;99.90
51902;DHT22;37929;53.218;6.548;2023-07-29T12:49:21;20.70;99.90
51902;DHT22;37929;53.218;6.548;2023-07-29T12:51:48;20.80;99.90
51902;DHT22;37929;53.218;6.548;2023-07-29T12:54:14;20.90;99.90
51902;DHT22;37929;53.218;6.548;2023-07-29T12:56:40;21.00;99.90
51902;DHT22;37929;53.218;6.548;2023-07-29T12:59:06;21.00;99.90
51902;DHT22;37929;53.218;6.548;2023-07-29T13:01:32;21.00;99.90
51902;DHT22;37929;53.218;6.548;2023-07-29T13:03:57;20.90;99.90
51902;DHT22;37929;53.218;6.548;2023-07-29T13:06:23;20.90;99.90
51902;DHT22;37929;53.218;6.548;2023-07-29T13:08:49;20.90;99.90
51902;DHT22;37929;53.218;6.548;2023-07-29T13:11:16;20.90;99.90
51902;DHT22;37929;53.218;6.548;2023-07-29T13:13:42;20.90;99.90
51902;DHT22;37929;53.218;6.548;2023-07-29T13:16:08;20.90;99.90
51902;DHT22;37929;53.218;6.548;2023-07-29T13:18:34;20.80;99.90
51902;DHT22;37929;53.218;6.548;2023-07-29T13:21:00;20.80;99.90
51902;DHT22;37929;53.218;6.548;2023-07-29T13:23:26;20.70;99.90
51902;DHT22;37929;53.218;6.548;2023-07-29T13:25:53;20.60;99.90
51902;DHT22;37929;53.218;6.548;2023-07-29T13:28:19;20.60;99.90
51902;DHT22;37929;53.218;6.548;2023-07-29T13:30:45;20.60;99.90
51902;DHT22;37929;53.218;6.548;2023-07-29T13:33:10;20.60;99.90
51902;DHT22;37929;53.218;6.548;2023-07-29T13:35:36;20.80;99.90
51902;DHT22;37929;53.218;6.548;2023-07-29T13:38:02;20.90;99.90
51902;DHT22;37929;53.218;6.548;2023-07-29T13:40:28;20.90;99.90
51902;DHT22;37929;53.218;6.548;2023-07-29T13:42:54;20.90;99.90
51902;DHT22;37929;53.218;6.548;2023-07-29T13:45:20;20.90;99.90
51902;DHT22;37929;53.218;6.548;2023-07-29T13:47:46;20.80;99.90
51902;DHT22;37929;53.218;6.548;2023-07-29T13:50:12;20.70;99.90
51902;DHT22;37929;53.218;6.548;2023-07-29T13:52:38;20.70;99.90
51902;DHT22;37929;53.218;6.548;2023-07-29T13:55:07;20.60;99.90
51902;DHT22;37929;53.218;6.548;2023-07-29T13:57:39;20.60;99.90
51902;DHT22;37929;53.218;6.548;2023-07-29T14:00:06;20.60;99.90
51902;DHT22;37929;53.218;6.548;2023-07-29T14:02:34;20.60;99.90
51902;DHT22;37929;53.218;6.548;2023-07-29T14:05:00;20.60;99.90
51902;DHT22;37929;53.218;6.548;2023-07-29T14:07:26;20.70;99.90
51902;DHT22;37929;53.218;6.548;2023-07-29T14:09:52;20.80;99.90
51902;DHT22;37929;53.218;6.548;2023-07-29T14:12:17;20.90;99.90
51902;DHT22;37929;53.218;6.548;2023-07-29T14:14:43;21.00;99.90
51902;DHT22;37929;53.218;6.548;2023-07-29T14:17:09;21.20;99.90
51902;DHT22;37929;53.218;6.548;2023-07-29T14:19:36;21.30;99.90
51902;DHT22;37929;53.218;6.548;2023-07-29T14:22:02;21.40;99.90
51902;DHT22;37929;53.218;6.548;2023-07-29T14:24:28;21.50;99.90
51902;DHT22;37929;53.218;6.548;2023-07-29T14:26:53;21.60;99.90
51902;DHT22;37929;53.218;6.548;2023-07-29T14:29:19;21.60;99.90
51902;DHT22;37929;53.218;6.548;2023-07-29T14:31:45;21.70;99.90
51902;DHT22;37929;53.218;6.548;2023-07-29T14:34:11;21.70;99.90
51902;DHT22;37929;53.218;6.548;2023-07-29T14:36:37;21.80;99.90
51902;DHT22;37929;53.218;6.548;2023-07-29T14:39:03;21.90;99.90
51902;DHT22;37929;53.218;6.548;2023-07-29T14:41:30;21.80;99.90
51902;DHT22;37929;53.218;6.548;2023-07-29T14:43:56;21.90;99.90
51902;DHT22;37929;53.218;6.548;2023-07-29T14:46:22;21.80;99.90
51902;DHT22;37929;53.218;6.548;2023-07-29T14:48:48;21.70;99.90
51902;DHT22;37929;53.218;6.548;2023-07-29T14:51:14;21.70;99.90
51902;DHT22;37929;53.218;6.548;2023-07-29T14:53:40;21.70;99.90
51902;DHT22;37929;53.218;6.548;2023-07-29T14:56:06;21.80;99.90
51902;DHT22;37929;53.218;6.548;2023-07-29T14:58:31;21.90;99.90
51902;DHT22;37929;53.218;6.548;2023-07-29T15:00:57;21.70;99.90
51902;DHT22;37929;53.218;6.548;2023-07-29T15:03:26;21.70;99.90
51902;DHT22;37929;53.218;6.548;2023-07-29T15:05:52;21.60;99.90
51902;DHT22;37929;53.218;6.548;2023-07-29T15:08:18;21.60;99.90
51902;DHT22;37929;53.218;6.548;2023-07-29T15:10:47;21.60;99.90
51902;DHT22;37929;53.218;6.548;2023-07-29T15:13:14;21.70;99.90
51902;DHT22;37929;53.218;6.548;2023-07-29T15:15:43;21.80;99.90
51902;DHT22;37929;53.218;6.548;2023-07-29T15:18:09;21.90;99.90
51902;DHT22;37929;53.218;6.548;2023-07-29T15:20:35;21.90;99.90
51902;DHT22;37929;53.218;6.548;2023-07-29T15:23:01;22.00;99.90
51902;DHT22;37929;53.218;6.548;2023-07-29T15:25:27;21.90;99.90
51902;DHT22;37929;53.218;6.548;2023-07-29T15:27:53;21.90;99.90
51902;DHT22;37929;53.218;6.548;2023-07-29T15:30:19;21.90;99.90
51902;DHT22;37929;53.218;6.548;2023-07-29T15:32:45;21.90;99.90
51902;DHT22;37929;53.218;6.548;2023-07-29T15:35:11;21.80;99.90
51902;DHT22;37929;53.218;6.548;2023-07-29T15:37:37;21.90;99.90
51902;DHT22;37929;53.218;6.548;2023-07-29T15:40:04;21.90;99.90
51902;DHT22;37929;53.218;6.548;2023-07-29T15:42:30;22.00;99.90
51902;DHT22;37929;53.218;6.548;2023-07-29T15:44:56;22.00;99.90
51902;DHT22;37929;53.218;6.548;2023-07-29T15:47:22;21.90;99.90